sensor_id;sensor_type;location;lat;lon;timestamp;pressure;altitude;pressure_sealevel;temperature;humidity
9774;BME280;4926;42.670;23.316;2023-06-22T00:00:54;94999.03;;;21.97;80.96
9774;BME280;4926;42.670;23.316;2023-06-22T00:03:24;94997.13;;;21.98;80.37
9774;BME280;4926;42.670;23.316;2023-06-22T00:05:51;95003.81;;;21.61;85.37
9774;BME280;4926;42.670;23.316;2023-06-22T00:08:19;95009.06;;;21.42;88.71
9774;BME280;4926;42.670;23.316;2023-06-22T00:10:46;94999.22;;;21.22;91.88
9774;BME280;4926;42.670;23.316;2023-06-22T00:13:13;94996.94;;;21.12;92.38
9774;BME280;4926;42.670;23.316;2023-06-22T00:15:42;95001.84;;;20.94;92.65
9774;BME280;4926;42.670;23.316;2023-06-22T00:18:10;95000.25;;;20.81;92.86
9774;BME280;4926;42.670;23.316;2023-06-22T00:20:39;94993.59;;;20.78;91.75
9774;BME280;4926;42.670;23.316;2023-06-22T00:23:06;94988.66;;;20.68;90.88
9774;BME280;4926;42.670;23.316;2023-06-22T00:25:34;94984.38;;;20.55;92.26
9774;BME280;4926;42.670;23.316;2023-06-22T00:28:01;94980.31;;;20.49;92.89
9774;BME280;4926;42.670;23.316;2023-06-22T00:30:29;94971.75;;;20.47;94.91
9774;BME280;4926;42.670;23.316;2023-06-22T00:32:57;94968.34;;;20.38;98.20
9774;BME280;4926;42.670;23.316;2023-06-22T00:35:24;94963.06;;;20.30;100.00
9774;BME280;4926;42.670;23.316;2023-06-22T00:37:55;94951.25;;;20.34;100.00
9774;BME280;4926;42.670;23.316;2023-06-22T00:40:26;94950.34;;;20.30;100.00
9774;BME280;4926;42.670;23.316;2023-06-22T00:42:56;94939.97;;;20.20;100.00
9774;BME280;4926;42.670;23.316;2023-06-22T00:45:23;94934.78;;;20.15;100.00
9774;BME280;4926;42.670;23.316;2023-06-22T00:47:51;94933.19;;;20.14;100.00
9774;BME280;4926;42.670;23.316;2023-06-22T00:50:20;94934.91;;;20.19;100.00
9774;BME280;4926;42.670;23.316;2023-06-22T00:52:49;94934.56;;;20.20;100.00
9774;BME280;4926;42.670;23.316;2023-06-22T00:55:19;94936.38;;;20.28;100.00
9774;BME280;4926;42.670;23.316;2023-06-22T00:57:47;94933.88;;;20.23;100.00
9774;BME280;4926;42.670;23.316;2023-06-22T01:00:15;94926.00;;;20.30;100.00
9774;BME280;4926;42.670;23.316;2023-06-22T01:02:45;94935.56;;;20.28;100.00
9774;BME280;4926;42.670;23.316;2023-06-22T01:05:12;94940.44;;;20.22;100.00
9774;BME280;4926;42.670;23.316;2023-06-22T01:07:43;94943.56;;;20.24;100.00
9774;BME280;4926;42.670;23.316;2023-06-22T01:10:16;94934.34;;;20.37;100.00
9774;BME280;4926;42.670;23.316;2023-06-22T01:12:52;94937.38;;;20.48;100.00
9774;BME280;4926;42.670;23.316;2023-06-22T01:15:25;94941.75;;;20.52;99.33
9774;BME280;4926;42.670;23.316;2023-06-22T01:17:56;94941.97;;;20.59;98.11
9774;BME280;4926;42.670;23.316;2023-06-22T01:20:25;94939.03;;;20.64;98.72
9774;BME280;4926;42.670;23.316;2023-06-22T01:23:02;94943.78;;;20.79;99.42
9774;BME280;4926;42.670;23.316;2023-06-22T01:25:37;94950.19;;;20.75;99.47
9774;BME280;4926;42.670;23.316;2023-06-22T01:28:24;94941.97;;;20.71;100.00
9774;BME280;4926;42.670;23.316;2023-06-22T01:30:53;94955.50;;;20.47;100.00
9774;BME280;4926;42.670;23.316;2023-06-22T01:33:31;94950.78;;;20.44;100.00
9774;BME280;4926;42.670;23.316;2023-06-22T01:36:00;94960.69;;;20.64;100.00
9774;BME280;4926;42.670;23.316;2023-06-22T01:38:27;94954.97;;;20.54;100.00
9774;BME280;4926;42.670;23.316;2023-06-22T01:40:57;94943.38;;;20.41;100.00
9774;BME280;4926;42.670;23.316;2023-06-22T01:43:27;94962.84;;;20.23;100.00
9774;BME280;4926;42.670;23.316;2023-06-22T01:46:00;94958.69;;;20.25;100.00
9774;BME280;4926;42.670;23.316;2023-06-22T01:48:31;94954.41;;;20.36;100.00
9774;BME280;4926;42.670;23.316;2023-06-22T01:50:58;94958.44;;;20.42;100.00
9774;BME280;4926;42.670;23.316;2023-06-22T01:53:25;94963.19;;;20.45;100.00
9774;BME280;4926;42.670;23.316;2023-06-22T01:55:53;94967.94;;;20.48;100.00
9774;BME280;4926;42.670;23.316;2023-06-22T01:58:25;94967.94;;;20.48;100.00
9774;BME280;4926;42.670;23.316;2023-06-22T02:00:58;94964.44;;;20.48;100.00
9774;BME280;4926;42.670;23.316;2023-06-22T02:03:32;94962.41;;;20.45;100.00
9774;BME280;4926;42.670;23.316;2023-06-22T02:06:04;94979.84;;;20.47;100.00
9774;BME280;4926;42.670;23.316;2023-06-22T02:08:39;94973.78;;;20.50;100.00
9774;BME280;4926;42.670;23.316;2023-06-22T02:11:10;94986.53;;;20.50;100.00
9774;BME280;4926;42.670;23.316;2023-06-22T02:13:38;94974.91;;;20.49;100.00
9774;BME280;4926;42.670;23.316;2023-06-22T02:16:10;94978.97;;;20.55;100.00
9774;BME280;4926;42.670;23.316;2023-06-22T02:18:48;94972.66;;;20.51;100.00
9774;BME280;4926;42.670;23.316;2023-06-22T02:21:17;94960.94;;;20.47;100.00
9774;BME280;4926;42.670;23.316;2023-06-22T02:23:46;94964.78;;;20.46;100.00
9774;BME280;4926;42.670;23.316;2023-06-22T02:26:15;94969.50;;;20.49;99.78
9774;BME280;4926;42.670;23.316;2023-06-22T02:28:42;94962.06;;;20.46;98.38
9774;BME280;4926;42.670;23.316;2023-06-22T02:31:10;94964.09;;;20.49;97.41
9774;BME280;4926;42.670;23.316;2023-06-22T02:33:37;94951.81;;;20.52;97.11
9774;BME280;4926;42.670;23.316;2023-06-22T02:36:04;94961.84;;;20.51;97.14
9774;BME280;4926;42.670;23.316;2023-06-22T02:38:34;94960.69;;;20.52;95.78
9774;BME280;4926;42.670;23.316;2023-06-22T02:41:01;94963.97;;;20.58;95.04
9774;BME280;4926;42.670;23.316;2023-06-22T02:43:28;94975.81;;;20.53;94.64
9774;BME280;4926;42.670;23.316;2023-06-22T02:45:55;94969.28;;;20.42;94.15
9774;BME280;4926;42.670;23.316;2023-06-22T02:48:23;94974.44;;;20.35;94.38
9774;BME280;4926;42.670;23.316;2023-06-22T02:50:50;94969.28;;;20.30;94.90
9774;BME280;4926;42.670;23.316;2023-06-22T02:53:17;94974.22;;;20.28;95.17
9774;BME280;4926;42.670;23.316;2023-06-22T02:55:45;94965.78;;;20.30;94.67
9774;BME280;4926;42.670;23.316;2023-06-22T02:58:13;94971.19;;;20.30;95.16
9774;BME280;4926;42.670;23.316;2023-06-22T03:00:40;94967.03;;;20.32;94.66
9774;BME280;4926;42.670;23.316;2023-06-22T03:03:07;94971.63;;;20.32;93.91
9774;BME280;4926;42.670;23.316;2023-06-22T03:05:35;94966.44;;;20.27;93.12
9774;BME280;4926;42.670;23.316;2023-06-22T03:08:02;94971.84;;;20.27;93.16
9774;BME280;4926;42.670;23.316;2023-06-22T03:10:28;94965.44;;;20.31;92.63
9774;BME280;4926;42.670;23.316;2023-06-22T03:12:55;94978.28;;;20.34;93.03
9774;BME280;4926;42.670;23.316;2023-06-22T03:15:22;94990.69;;;20.35;95.30
9774;BME280;4926;42.670;23.316;2023-06-22T03:17:51;94989.34;;;20.41;97.49
9774;BME280;4926;42.670;23.316;2023-06-22T03:20:20;94995.09;;;20.52;97.60
9774;BME280;4926;42.670;23.316;2023-06-22T03:22:48;94994.28;;;20.51;95.74
9774;BME280;4926;42.670;23.316;2023-06-22T03:25:15;94998.69;;;20.56;93.56
9774;BME280;4926;42.670;23.316;2023-06-22T03:27:42;94999.25;;;20.61;93.37
9774;BME280;4926;42.670;23.316;2023-06-22T03:30:11;95001.06;;;20.69;92.73
9774;BME280;4926;42.670;23.316;2023-06-22T03:32:38;94999.47;;;20.68;92.24
9774;BME280;4926;42.670;23.316;2023-06-22T03:35:08;95005.78;;;20.72;92.24
9774;BME280;4926;42.670;23.316;2023-06-22T03:37:35;95010.50;;;20.75;92.51
9774;BME280;4926;42.670;23.316;2023-06-22T03:40:08;95009.59;;;20.71;91.96
9774;BME280;4926;42.670;23.316;2023-06-22T03:42:35;95016.97;;;20.71;91.53
9774;BME280;4926;42.670;23.316;2023-06-22T03:45:07;95019.78;;;20.62;91.63
9774;BME280;4926;42.670;23.316;2023-06-22T03:47:34;95014.25;;;20.47;92.78
9774;BME280;4926;42.670;23.316;2023-06-22T03:50:01;95014.38;;;20.50;93.73
9774;BME280;4926;42.670;23.316;2023-06-22T03:52:28;95023.81;;;20.56;93.64
9774;BME280;4926;42.670;23.316;2023-06-22T03:54:57;95028.56;;;20.59;92.75
9774;BME280;4926;42.670;23.316;2023-06-22T03:57:27;95030.03;;;20.45;93.52
9774;BME280;4926;42.670;23.316;2023-06-22T03:59:57;95023.56;;;20.25;95.05
9774;BME280;4926;42.670;23.316;2023-06-22T04:02:24;95025.81;;;20.23;96.55
9774;BME280;4926;42.670;23.316;2023-06-22T04:04:51;95033.94;;;20.23;96.87
9774;BME280;4926;42.670;23.316;2023-06-22T04:07:19;95036.41;;;20.28;97.08
9774;BME280;4926;42.670;23.316;2023-06-22T04:09:49;95034.63;;;20.32;97.24
9774;BME280;4926;42.670;23.316;2023-06-22T04:12:17;95025.16;;;20.38;97.64
9774;BME280;4926;42.670;23.316;2023-06-22T04:14:45;95011.31;;;20.52;96.78
9774;BME280;4926;42.670;23.316;2023-06-22T04:17:13;95004.66;;;20.61;96.04
9774;BME280;4926;42.670;23.316;2023-06-22T04:19:40;95010.97;;;20.65;94.79
9774;BME280;4926;42.670;23.316;2023-06-22T04:22:07;95005.00;;;20.72;94.56
9774;BME280;4926;42.670;23.316;2023-06-22T04:24:37;95004.31;;;20.75;93.66
9774;BME280;4926;42.670;23.316;2023-06-22T04:27:06;94995.19;;;20.55;93.99
9774;BME280;4926;42.670;23.316;2023-06-22T04:29:32;94991.34;;;20.32;96.68
9774;BME280;4926;42.670;23.316;2023-06-22T04:32:01;94992.69;;;20.26;97.67
9774;BME280;4926;42.670;23.316;2023-06-22T04:34:30;94992.94;;;20.33;99.33
9774;BME280;4926;42.670;23.316;2023-06-22T04:36:57;94996.53;;;20.37;100.00
9774;BME280;4926;42.670;23.316;2023-06-22T04:39:24;95004.19;;;20.47;100.00
9774;BME280;4926;42.670;23.316;2023-06-22T04:41:52;95003.09;;;20.60;100.00
9774;BME280;4926;42.670;23.316;2023-06-22T04:44:20;94997.78;;;20.52;95.21
9774;BME280;4926;42.670;23.316;2023-06-22T04:46:50;95002.19;;;20.68;98.23
9774;BME280;4926;42.670;23.316;2023-06-22T04:49:21;95012.13;;;20.76;95.97
9774;BME280;4926;42.670;23.316;2023-06-22T04:51:48;95004.09;;;20.92;97.74
9774;BME280;4926;42.670;23.316;2023-06-22T04:54:17;95005.31;;;21.06;97.85
9774;BME280;4926;42.670;23.316;2023-06-22T04:56:43;95018.41;;;21.17;94.59
9774;BME280;4926;42.670;23.316;2023-06-22T04:59:11;95017.47;;;21.25;92.96
9774;BME280;4926;42.670;23.316;2023-06-22T05:01:38;95020.63;;;21.27;91.23
9774;BME280;4926;42.670;23.316;2023-06-22T05:04:05;95024.75;;;21.36;91.73
9774;BME280;4926;42.670;23.316;2023-06-22T05:06:33;95020.41;;;21.20;88.38
9774;BME280;4926;42.670;23.316;2023-06-22T05:09:00;95026.94;;;21.31;89.16
9774;BME280;4926;42.670;23.316;2023-06-22T05:11:28;95022.72;;;21.45;89.22
9774;BME280;4926;42.670;23.316;2023-06-22T05:13:55;95021.66;;;21.62;87.63
9774;BME280;4926;42.670;23.316;2023-06-22T05:16:25;95017.53;;;21.68;86.35
9774;BME280;4926;42.670;23.316;2023-06-22T05:18:52;95021.03;;;21.80;86.33
9774;BME280;4926;42.670;23.316;2023-06-22T05:21:21;95017.25;;;21.97;86.12
9774;BME280;4926;42.670;23.316;2023-06-22T05:23:50;95015.84;;;22.03;84.61
9774;BME280;4926;42.670;23.316;2023-06-22T05:26:17;95021.63;;;22.17;84.15
9774;BME280;4926;42.670;23.316;2023-06-22T05:28:44;95023.06;;;22.27;83.27
9774;BME280;4926;42.670;23.316;2023-06-22T05:31:12;95015.44;;;22.32;82.93
9774;BME280;4926;42.670;23.316;2023-06-22T05:33:41;95027.00;;;22.45;82.59
9774;BME280;4926;42.670;23.316;2023-06-22T05:36:11;95035.94;;;22.45;82.06
9774;BME280;4926;42.670;23.316;2023-06-22T05:38:39;95030.75;;;22.40;81.46
9774;BME280;4926;42.670;23.316;2023-06-22T05:41:07;95034.94;;;22.22;81.11
9774;BME280;4926;42.670;23.316;2023-06-22T05:43:34;95047.13;;;22.28;80.99
9774;BME280;4926;42.670;23.316;2023-06-22T05:46:01;95044.84;;;22.30;80.45
9774;BME280;4926;42.670;23.316;2023-06-22T05:48:31;95046.59;;;22.38;80.12
9774;BME280;4926;42.670;23.316;2023-06-22T05:50:58;95053.34;;;22.44;80.13
9774;BME280;4926;42.670;23.316;2023-06-22T05:53:24;95054.22;;;22.48;80.21
9774;BME280;4926;42.670;23.316;2023-06-22T05:55:57;95049.69;;;22.68;79.71
9774;BME280;4926;42.670;23.316;2023-06-22T05:58:25;95053.03;;;22.77;79.79
9774;BME280;4926;42.670;23.316;2023-06-22T06:00:51;95050.56;;;22.87;79.54
9774;BME280;4926;42.670;23.316;2023-06-22T06:03:18;95050.41;;;22.80;79.41
9774;BME280;4926;42.670;23.316;2023-06-22T06:05:45;95046.03;;;22.91;79.31
9774;BME280;4926;42.670;23.316;2023-06-22T06:08:11;95054.06;;;23.03;78.98
9774;BME280;4926;42.670;23.316;2023-06-22T06:10:42;95037.41;;;23.05;79.40
9774;BME280;4926;42.670;23.316;2023-06-22T06:13:09;95031.78;;;23.13;79.19
9774;BME280;4926;42.670;23.316;2023-06-22T06:15:37;95034.56;;;23.33;79.05
9774;BME280;4926;42.670;23.316;2023-06-22T06:18:04;95024.22;;;23.57;77.49
9774;BME280;4926;42.670;23.316;2023-06-22T06:20:32;95034.44;;;23.64;77.10
9774;BME280;4926;42.670;23.316;2023-06-22T06:22:58;95030.59;;;23.65;76.80
9774;BME280;4926;42.670;23.316;2023-06-22T06:25:25;95028.31;;;23.67;76.84
9774;BME280;4926;42.670;23.316;2023-06-22T06:27:54;95026.41;;;23.90;76.32
9774;BME280;4926;42.670;23.316;2023-06-22T06:30:21;95029.41;;;24.23;75.36
9774;BME280;4926;42.670;23.316;2023-06-22T06:32:50;95026.69;;;24.42;73.38
9774;BME280;4926;42.670;23.316;2023-06-22T06:35:19;95016.84;;;24.60;72.41
9774;BME280;4926;42.670;23.316;2023-06-22T06:37:48;95011.78;;;24.81;70.57
9774;BME280;4926;42.670;23.316;2023-06-22T06:40:17;94999.50;;;24.91;69.35
9774;BME280;4926;42.670;23.316;2023-06-22T06:42:47;95004.50;;;25.15;69.03
9774;BME280;4926;42.670;23.316;2023-06-22T06:45:18;94997.94;;;25.46;68.37
9774;BME280;4926;42.670;23.316;2023-06-22T06:47:45;94992.53;;;25.49;66.56
9774;BME280;4926;42.670;23.316;2023-06-22T06:50:14;94993.78;;;25.55;66.29
9774;BME280;4926;42.670;23.316;2023-06-22T06:52:41;94988.13;;;25.71;66.05
9774;BME280;4926;42.670;23.316;2023-06-22T06:55:10;94975.50;;;25.89;64.55
9774;BME280;4926;42.670;23.316;2023-06-22T06:57:39;94977.97;;;26.01;63.81
9774;BME280;4926;42.670;23.316;2023-06-22T07:00:09;94973.44;;;26.12;62.88
9774;BME280;4926;42.670;23.316;2023-06-22T07:02:42;94973.34;;;26.41;61.55
9774;BME280;4926;42.670;23.316;2023-06-22T07:05:19;94960.00;;;26.84;61.09
9774;BME280;4926;42.670;23.316;2023-06-22T07:07:46;94963.78;;;27.23;60.04
9774;BME280;4926;42.670;23.316;2023-06-22T07:10:14;94959.72;;;27.61;58.04
9774;BME280;4926;42.670;23.316;2023-06-22T07:12:41;94960.16;;;27.77;57.43
9774;BME280;4926;42.670;23.316;2023-06-22T07:15:09;94961.44;;;28.04;57.53
9774;BME280;4926;42.670;23.316;2023-06-22T07:17:38;94950.50;;;28.07;56.50
9774;BME280;4926;42.670;23.316;2023-06-22T07:20:07;94958.72;;;28.11;56.43
9774;BME280;4926;42.670;23.316;2023-06-22T07:22:37;94957.97;;;28.35;56.32
9774;BME280;4926;42.670;23.316;2023-06-22T07:25:06;94951.00;;;28.69;54.79
9774;BME280;4926;42.670;23.316;2023-06-22T07:27:36;94949.00;;;28.80;54.92
9774;BME280;4926;42.670;23.316;2023-06-22T07:30:06;94944.72;;;28.79;54.28
9774;BME280;4926;42.670;23.316;2023-06-22T07:32:34;94940.78;;;28.94;53.88
9774;BME280;4926;42.670;23.316;2023-06-22T07:35:18;94945.84;;;29.06;52.70
9774;BME280;4926;42.670;23.316;2023-06-22T07:37:46;94939.97;;;28.97;52.23
9774;BME280;4926;42.670;23.316;2023-06-22T07:40:13;94944.72;;;28.93;52.34
9774;BME280;4926;42.670;23.316;2023-06-22T07:42:40;94951.75;;;28.87;52.70
9774;BME280;4926;42.670;23.316;2023-06-22T07:45:07;94943.91;;;28.89;52.28
9774;BME280;4926;42.670;23.316;2023-06-22T07:47:34;94938.41;;;29.07;50.51
9774;BME280;4926;42.670;23.316;2023-06-22T07:50:02;94945.50;;;28.80;51.79
9774;BME280;4926;42.670;23.316;2023-06-22T07:52:29;94950.16;;;29.07;51.54
9774;BME280;4926;42.670;23.316;2023-06-22T07:54:58;94947.81;;;29.09;51.35
9774;BME280;4926;42.670;23.316;2023-06-22T07:57:25;94947.06;;;29.12;51.68
9774;BME280;4926;42.670;23.316;2023-06-22T07:59:57;94962.31;;;28.89;52.68
9774;BME280;4926;42.670;23.316;2023-06-22T08:02:24;94944.28;;;29.19;52.20
9774;BME280;4926;42.670;23.316;2023-06-22T08:04:51;94939.94;;;29.25;52.07
9774;BME280;4926;42.670;23.316;2023-06-22T08:07:18;94936.06;;;29.19;52.18
9774;BME280;4926;42.670;23.316;2023-06-22T08:09:46;94930.56;;;29.30;52.20
9774;BME280;4926;42.670;23.316;2023-06-22T08:12:15;94912.78;;;29.59;51.16
9774;BME280;4926;42.670;23.316;2023-06-22T08:14:43;94928.72;;;29.96;50.88
9774;BME280;4926;42.670;23.316;2023-06-22T08:17:11;94920.41;;;30.10;51.10
9774;BME280;4926;42.670;23.316;2023-06-22T08:19:41;94921.56;;;30.16;50.73
9774;BME280;4926;42.670;23.316;2023-06-22T08:22:08;94923.22;;;29.96;50.97
9774;BME280;4926;42.670;23.316;2023-06-22T08:24:35;94914.56;;;30.01;51.19
9774;BME280;4926;42.670;23.316;2023-06-22T08:27:01;94901.16;;;30.13;50.42
9774;BME280;4926;42.670;23.316;2023-06-22T08:29:29;94897.50;;;30.34;49.14
9774;BME280;4926;42.670;23.316;2023-06-22T08:31:56;94893.34;;;30.08;48.43
9774;BME280;4926;42.670;23.316;2023-06-22T08:34:23;94910.63;;;30.05;49.58
9774;BME280;4926;42.670;23.316;2023-06-22T08:36:53;94913.06;;;29.93;50.95
9774;BME280;4926;42.670;23.316;2023-06-22T08:39:20;94921.69;;;29.95;51.79
9774;BME280;4926;42.670;23.316;2023-06-22T08:41:48;94911.78;;;30.08;50.58
9774;BME280;4926;42.670;23.316;2023-06-22T08:44:18;94924.06;;;29.89;51.48
9774;BME280;4926;42.670;23.316;2023-06-22T08:46:46;94922.56;;;29.78;50.81
9774;BME280;4926;42.670;23.316;2023-06-22T08:49:13;94913.63;;;30.32;49.65
9774;BME280;4926;42.670;23.316;2023-06-22T08:51:40;94913.50;;;30.46;49.92
9774;BME280;4926;42.670;23.316;2023-06-22T08:54:07;94910.78;;;30.90;49.69
9774;BME280;4926;42.670;23.316;2023-06-22T08:56:34;94901.94;;;31.09;49.06
9774;BME280;4926;42.670;23.316;2023-06-22T08:59:03;94895.66;;;31.12;48.93
9774;BME280;4926;42.670;23.316;2023-06-22T09:01:33;94881.34;;;31.24;46.88
9774;BME280;4926;42.670;23.316;2023-06-22T09:04:04;94879.41;;;31.21;46.81
9774;BME280;4926;42.670;23.316;2023-06-22T09:06:43;94867.81;;;31.40;46.02
9774;BME280;4926;42.670;23.316;2023-06-22T09:09:12;94870.97;;;31.39;45.88
9774;BME280;4926;42.670;23.316;2023-06-22T09:11:39;94867.53;;;31.61;45.49
9774;BME280;4926;42.670;23.316;2023-06-22T09:14:05;94868.03;;;31.83;45.83
9774;BME280;4926;42.670;23.316;2023-06-22T09:16:34;94870.91;;;31.76;45.64
9774;BME280;4926;42.670;23.316;2023-06-22T09:19:01;94865.91;;;31.67;44.86
9774;BME280;4926;42.670;23.316;2023-06-22T09:21:29;94874.28;;;31.57;46.22
9774;BME280;4926;42.670;23.316;2023-06-22T09:23:56;94871.22;;;31.82;45.68
9774;BME280;4926;42.670;23.316;2023-06-22T09:26:24;94859.72;;;31.90;43.92
9774;BME280;4926;42.670;23.316;2023-06-22T09:28:51;94856.72;;;31.77;43.25
9774;BME280;4926;42.670;23.316;2023-06-22T09:31:19;94860.13;;;31.89;43.86
9774;BME280;4926;42.670;23.316;2023-06-22T09:33:51;94869.94;;;31.90;44.63
9774;BME280;4926;42.670;23.316;2023-06-22T09:36:17;94872.38;;;31.84;44.37
9774;BME280;4926;42.670;23.316;2023-06-22T09:38:46;94873.22;;;32.08;44.36
9774;BME280;4926;42.670;23.316;2023-06-22T09:41:12;94864.31;;;32.50;43.03
9774;BME280;4926;42.670;23.316;2023-06-22T09:43:39;94856.25;;;32.62;42.40
9774;BME280;4926;42.670;23.316;2023-06-22T09:46:06;94854.28;;;33.06;40.78
9774;BME280;4926;42.670;23.316;2023-06-22T09:48:34;94845.88;;;33.32;40.91
9774;BME280;4926;42.670;23.316;2023-06-22T09:51:01;94826.81;;;33.77;40.20
9774;BME280;4926;42.670;23.316;2023-06-22T09:53:28;94832.00;;;33.91;40.01
9774;BME280;4926;42.670;23.316;2023-06-22T09:55:56;94827.00;;;33.86;39.92
9774;BME280;4926;42.670;23.316;2023-06-22T09:58:23;94814.69;;;34.07;40.16
9774;BME280;4926;42.670;23.316;2023-06-22T10:00:50;94811.25;;;34.35;40.20
9774;BME280;4926;42.670;23.316;2023-06-22T10:03:16;94809.63;;;34.37;39.06
9774;BME280;4926;42.670;23.316;2023-06-22T10:05:44;94807.22;;;33.88;39.56
9774;BME280;4926;42.670;23.316;2023-06-22T10:08:11;94811.38;;;33.79;38.82
9774;BME280;4926;42.670;23.316;2023-06-22T10:10:40;94811.09;;;33.74;39.41
9774;BME280;4926;42.670;23.316;2023-06-22T10:13:09;94808.53;;;33.83;39.57
9774;BME280;4926;42.670;23.316;2023-06-22T10:15:36;94813.34;;;33.43;39.91
9774;BME280;4926;42.670;23.316;2023-06-22T10:18:06;94806.72;;;33.37;40.25
9774;BME280;4926;42.670;23.316;2023-06-22T10:20:32;94815.38;;;33.39;40.82
9774;BME280;4926;42.670;23.316;2023-06-22T10:22:59;94810.44;;;33.31;41.13
9774;BME280;4926;42.670;23.316;2023-06-22T10:25:26;94810.84;;;33.49;40.89
9774;BME280;4926;42.670;23.316;2023-06-22T10:27:55;94815.16;;;33.69;40.80
9774;BME280;4926;42.670;23.316;2023-06-22T10:30:24;94818.97;;;33.92;40.49
9774;BME280;4926;42.670;23.316;2023-06-22T10:32:50;94799.34;;;34.54;39.26
9774;BME280;4926;42.670;23.316;2023-06-22T10:35:17;94792.88;;;34.44;38.17
9774;BME280;4926;42.670;23.316;2023-06-22T10:37:45;94778.69;;;34.26;37.64
9774;BME280;4926;42.670;23.316;2023-06-22T10:40:16;94793.72;;;34.09;39.06
9774;BME280;4926;42.670;23.316;2023-06-22T10:42:46;94783.16;;;33.88;39.76
9774;BME280;4926;42.670;23.316;2023-06-22T10:45:13;94792.38;;;33.81;39.71
9774;BME280;4926;42.670;23.316;2023-06-22T10:47:42;94789.66;;;33.62;40.02
9774;BME280;4926;42.670;23.316;2023-06-22T10:50:09;94783.56;;;33.87;39.76
9774;BME280;4926;42.670;23.316;2023-06-22T10:52:38;94783.00;;;33.95;39.23
9774;BME280;4926;42.670;23.316;2023-06-22T10:55:05;94771.00;;;34.02;38.67
9774;BME280;4926;42.670;23.316;2023-06-22T10:57:32;94779.13;;;34.25;38.25
9774;BME280;4926;42.670;23.316;2023-06-22T11:00:00;94774.13;;;34.04;38.79
9774;BME280;4926;42.670;23.316;2023-06-22T11:02:27;94784.38;;;33.87;39.26
9774;BME280;4926;42.670;23.316;2023-06-22T11:04:55;94779.28;;;33.30;39.02
9774;BME280;4926;42.670;23.316;2023-06-22T11:07:25;94775.59;;;33.37;39.07
9774;BME280;4926;42.670;23.316;2023-06-22T11:09:53;94782.47;;;33.48;38.69
9774;BME280;4926;42.670;23.316;2023-06-22T11:12:19;94781.53;;;33.91;38.52
9774;BME280;4926;42.670;23.316;2023-06-22T11:14:48;94762.09;;;34.42;37.10
9774;BME280;4926;42.670;23.316;2023-06-22T11:17:17;94750.84;;;33.85;36.56
9774;BME280;4926;42.670;23.316;2023-06-22T11:19:43;94754.34;;;34.05;37.20
9774;BME280;4926;42.670;23.316;2023-06-22T11:22:13;94741.78;;;34.49;36.40
9774;BME280;4926;42.670;23.316;2023-06-22T11:24:40;94745.38;;;34.78;36.96
9774;BME280;4926;42.670;23.316;2023-06-22T11:27:07;94737.09;;;35.19;35.59
9774;BME280;4926;42.670;23.316;2023-06-22T11:29:35;94737.69;;;34.98;36.10
9774;BME280;4926;42.670;23.316;2023-06-22T11:32:03;94746.56;;;34.77;36.08
9774;BME280;4926;42.670;23.316;2023-06-22T11:34:29;94725.81;;;34.24;36.48
9774;BME280;4926;42.670;23.316;2023-06-22T11:36:56;94743.53;;;33.23;37.58
9774;BME280;4926;42.670;23.316;2023-06-22T11:39:24;94750.91;;;32.71;38.81
9774;BME280;4926;42.670;23.316;2023-06-22T11:41:51;94756.56;;;32.41;39.04
9774;BME280;4926;42.670;23.316;2023-06-22T11:44:18;94750.16;;;32.24;39.86
9774;BME280;4926;42.670;23.316;2023-06-22T11:46:47;94757.09;;;31.83;40.20
9774;BME280;4926;42.670;23.316;2023-06-22T11:49:14;94758.88;;;31.69;41.30
9774;BME280;4926;42.670;23.316;2023-06-22T11:51:41;94754.13;;;31.73;40.88
9774;BME280;4926;42.670;23.316;2023-06-22T11:54:10;94760.28;;;31.54;42.50
9774;BME280;4926;42.670;23.316;2023-06-22T11:56:41;94764.06;;;31.37;41.91
9774;BME280;4926;42.670;23.316;2023-06-22T11:59:08;94768.19;;;31.22;42.24
9774;BME280;4926;42.670;23.316;2023-06-22T12:01:35;94774.31;;;31.33;42.02
9774;BME280;4926;42.670;23.316;2023-06-22T12:04:02;94769.53;;;31.41;40.81
9774;BME280;4926;42.670;23.316;2023-06-22T12:06:31;94768.59;;;31.51;41.25
9774;BME280;4926;42.670;23.316;2023-06-22T12:08:58;94758.78;;;31.77;39.88
9774;BME280;4926;42.670;23.316;2023-06-22T12:11:24;94775.72;;;31.48;41.90
9774;BME280;4926;42.670;23.316;2023-06-22T12:13:52;94795.59;;;31.29;43.58
9774;BME280;4926;42.670;23.316;2023-06-22T12:16:21;94807.78;;;30.98;44.45
9774;BME280;4926;42.670;23.316;2023-06-22T12:18:49;94809.53;;;30.82;44.40
9774;BME280;4926;42.670;23.316;2023-06-22T12:21:16;94797.13;;;30.63;44.77
9774;BME280;4926;42.670;23.316;2023-06-22T12:23:43;94799.66;;;30.47;45.99
9774;BME280;4926;42.670;23.316;2023-06-22T12:26:09;94820.22;;;30.32;47.89
9774;BME280;4926;42.670;23.316;2023-06-22T12:28:36;94813.38;;;29.96;48.65
9774;BME280;4926;42.670;23.316;2023-06-22T12:31:04;94835.47;;;29.78;49.48
9774;BME280;4926;42.670;23.316;2023-06-22T12:33:31;94873.25;;;29.49;51.20
9774;BME280;4926;42.670;23.316;2023-06-22T12:35:58;94879.63;;;29.18;52.53
9774;BME280;4926;42.670;23.316;2023-06-22T12:38:33;94888.31;;;28.89;53.38
9774;BME280;4926;42.670;23.316;2023-06-22T12:41:00;94900.47;;;28.49;56.13
9774;BME280;4926;42.670;23.316;2023-06-22T12:43:27;94902.03;;;28.22;58.72
9774;BME280;4926;42.670;23.316;2023-06-22T12:45:53;94907.09;;;28.09;59.95
9774;BME280;4926;42.670;23.316;2023-06-22T12:48:21;94920.00;;;28.02;60.68
9774;BME280;4926;42.670;23.316;2023-06-22T12:50:50;94936.72;;;27.83;61.62
9774;BME280;4926;42.670;23.316;2023-06-22T12:53:20;94943.66;;;27.59;64.10
9774;BME280;4926;42.670;23.316;2023-06-22T12:55:48;94961.84;;;27.23;66.11
9774;BME280;4926;42.670;23.316;2023-06-22T12:58:23;94948.78;;;26.92;67.04
9774;BME280;4926;42.670;23.316;2023-06-22T13:00:50;94952.63;;;26.84;68.49
9774;BME280;4926;42.670;23.316;2023-06-22T13:03:17;94947.84;;;26.71;67.87
9774;BME280;4926;42.670;23.316;2023-06-22T13:05:47;94952.91;;;26.72;68.10
9774;BME280;4926;42.670;23.316;2023-06-22T13:08:13;94954.56;;;26.40;71.66
9774;BME280;4926;42.670;23.316;2023-06-22T13:10:42;94965.97;;;26.09;78.47
9774;BME280;4926;42.670;23.316;2023-06-22T13:13:09;94958.13;;;26.04;78.02
9774;BME280;4926;42.670;23.316;2023-06-22T13:15:35;94966.00;;;26.12;77.55